createdAt,value
2023-04-01T00:03:23.191Z,98305.59
2023-04-01T00:08:28.917Z,98300.56
2023-04-01T00:13:33.489Z,98296.16
2023-04-01T00:18:37.213Z,98279.91
2023-04-01T00:23:42.824Z,98301.31
2023-04-01T00:28:46.267Z,98299.63
2023-04-01T00:33:49.699Z,98292.69
2023-04-01T00:38:54.382Z,98294.53
2023-04-01T00:44:20.346Z,98303.31
2023-04-01T00:49:28.515Z,98266.22
2023-04-01T00:54:34.494Z,98286.91
2023-04-01T00:59:42.006Z,98292.97
2023-04-01T01:04:45.422Z,98306.72
2023-04-01T01:10:00.446Z,98299.63
2023-04-01T01:15:13.321Z,98284.94
2023-04-01T01:20:58.146Z,98304.19
2023-04-01T01:26:33.279Z,98299.03
2023-04-01T01:31:46.527Z,98300.91
2023-04-01T01:36:56.250Z,98304.41
2023-04-01T01:42:04.636Z,98295.72
2023-04-01T01:47:08.348Z,98303.59
2023-04-01T01:52:18.258Z,98309.69
2023-04-01T01:57:25.885Z,98308.84
2023-04-01T02:02:32.642Z,98290.97
2023-04-01T02:07:38.898Z,98318.44
2023-04-01T02:12:46.668Z,98319.34
2023-04-01T02:17:52.287Z,98296.22
2023-04-01T02:23:00.695Z,98328.03
2023-04-01T02:28:07.068Z,98319.34
2023-04-01T02:33:11.352Z,98316.72
2023-04-01T02:38:16.828Z,98328.84
2023-04-01T02:43:22.414Z,98270.22
2023-04-01T02:48:25.746Z,98316.38
2023-04-01T02:53:30.622Z,98315.41
2023-04-01T02:58:34.360Z,98309.22
2023-04-01T03:03:37.833Z,98325.66
2023-04-01T03:08:42.762Z,98335.25
2023-04-01T03:13:46.098Z,98338.78
2023-04-01T03:18:50.587Z,98336.97
2023-04-01T03:23:55.518Z,98347.28
2023-04-01T03:28:58.912Z,98345.38
2023-04-01T03:34:02.214Z,98350.53
2023-04-01T03:39:07.343Z,98351.28
2023-04-01T03:44:10.593Z,98361.44
2023-04-01T03:49:14.073Z,98372.41
2023-04-01T03:54:19.274Z,98375.69
2023-04-01T03:59:23.012Z,98383.44
2023-04-01T04:04:27.267Z,98375.44
2023-04-01T04:09:32.397Z,98384.72
2023-04-01T04:14:35.793Z,98395.28
2023-04-01T04:19:39.167Z,98393.66
2023-04-01T04:24:43.783Z,98400.72
2023-04-01T04:29:47.070Z,98395.28
2023-04-01T04:34:50.433Z,98407.28
2023-04-01T04:39:55.570Z,98406.22
2023-04-01T04:44:58.891Z,98416.63
2023-04-01T04:50:02.046Z,98421.88
2023-04-01T04:55:09.366Z,98431.84
2023-04-01T05:00:13.497Z,98432.16
2023-04-01T05:05:16.825Z,98439.47
2023-04-01T05:10:22.220Z,98438.34
2023-04-01T05:15:25.847Z,98438.81
2023-04-01T05:20:29.024Z,98429.81
2023-04-01T05:25:33.939Z,98435.63
2023-04-01T05:30:37.562Z,98435.38
2023-04-01T05:35:41.933Z,98426.47
2023-04-01T05:40:46.917Z,98451.28
2023-04-01T05:45:51.291Z,98458.28
2023-04-01T05:50:54.593Z,98456.25
2023-04-01T05:55:59.327Z,98461.44
2023-04-01T06:01:10.369Z,98468.31
2023-04-01T06:06:25.563Z,98469.44
2023-04-01T06:11:41.756Z,98474.59
2023-04-01T06:17:01.048Z,98477.34
2023-04-01T06:22:27.569Z,98474.03
2023-04-01T06:27:48.714Z,98476.66
2023-04-01T06:33:09.590Z,98483.53
2023-04-01T06:38:41.431Z,98484.00
2023-04-01T06:43:58.368Z,98491.03
2023-04-01T06:49:15.561Z,98503.03
2023-04-01T06:54:22.650Z,98500.28
2023-04-01T06:59:32.635Z,98499.72
2023-04-01T07:04:41.083Z,98510.66
2023-04-01T07:09:50.635Z,98493.34
2023-04-01T07:14:56.896Z,98504.03
2023-04-01T07:20:05.011Z,98504.47
2023-04-01T07:25:16.285Z,98499.59
2023-04-01T07:30:23.344Z,98481.75
2023-04-01T07:35:33.057Z,98494.50
2023-04-01T07:40:46.398Z,98490.16
2023-04-01T07:45:58.254Z,98488.88
2023-04-01T07:51:05.108Z,98482.03
2023-04-01T07:56:13.023Z,98486.00
2023-04-01T08:01:24.811Z,98488.69
2023-04-01T08:06:35.583Z,98486.72
2023-04-01T08:11:53.539Z,98474.03
2023-04-01T08:17:04.757Z,98487.56
2023-04-01T08:22:18.896Z,98503.41
2023-04-01T08:27:27.184Z,98496.47
2023-04-01T08:32:38.256Z,98511.97
2023-04-01T08:37:43.559Z,98517.94
2023-04-01T08:43:05.822Z,98498.16
2023-04-01T08:48:39.073Z,98511.06
2023-04-01T08:53:59.222Z,98504.81
2023-04-01T08:59:27.206Z,98513.88
2023-04-01T09:04:47.875Z,98526.03
2023-04-01T09:10:17.063Z,98538.91
2023-04-01T09:15:50.787Z,98530.53
2023-04-01T09:21:27.224Z,98540.66
2023-04-01T09:27:01.148Z,98551.25
2023-04-01T09:32:22.783Z,98550.97
2023-04-01T09:37:37.879Z,98546.13
2023-04-01T09:43:08.965Z,98545.75
2023-04-01T09:48:38.138Z,98529.31
2023-04-01T09:53:59.680Z,98528.94
2023-04-01T09:59:44.407Z,98544.00
2023-04-01T10:05:35.751Z,98539.16
2023-04-01T10:11:07.935Z,98535.44
2023-04-01T10:16:25.606Z,98532.72
2023-04-01T10:22:15.925Z,98537.69
2023-04-01T10:27:36.567Z,98539.91
2023-04-01T10:33:40.353Z,98540.97
2023-04-01T10:39:11.050Z,98554.09
2023-04-01T10:44:49.136Z,98560.50
2023-04-01T10:50:20.764Z,98550.66
2023-04-01T10:56:04.588Z,98568.25
2023-04-01T11:01:42.027Z,98553.66
2023-04-01T11:07:24.995Z,98554.38
2023-04-01T11:12:49.332Z,98566.88
2023-04-01T11:18:25.272Z,98579.84
2023-04-01T11:24:07.089Z,98588.31
2023-04-01T11:29:58.846Z,98587.97
2023-04-01T11:35:22.339Z,98596.06
2023-04-01T11:40:35.329Z,98602.41
2023-04-01T11:45:43.760Z,98604.75
2023-04-01T11:51:10.246Z,98618.72
2023-04-01T11:56:31.201Z,98619.25
2023-04-01T12:01:56.608Z,98647.59
2023-04-01T12:07:11.156Z,98632.47
2023-04-01T12:12:24.470Z,98639.41
2023-04-01T12:17:37.604Z,98619.41
2023-04-01T12:22:52.059Z,98629.88
2023-04-01T12:28:05.565Z,98638.38
2023-04-01T12:33:50.267Z,98641.28
2023-04-01T12:39:28.689Z,98653.03
2023-04-01T12:44:55.052Z,98660.66
2023-04-01T12:50:21.068Z,98677.94
2023-04-01T12:55:39.550Z,98667.81
2023-04-01T13:01:00.750Z,98664.69
2023-04-01T13:06:48.582Z,98678.75
2023-04-01T13:12:09.730Z,98681.94
2023-04-01T13:17:21.134Z,98689.09
2023-04-01T13:22:35.928Z,98685.00
2023-04-01T13:27:44.588Z,98696.56
2023-04-01T13:32:52.887Z,98695.78
2023-04-01T13:38:10.727Z,98699.63
2023-04-01T13:43:22.311Z,98711.88
2023-04-01T13:48:50.934Z,98707.91
2023-04-01T13:54:07.290Z,98711.97
2023-04-01T13:59:39.996Z,98722.56
2023-04-01T14:05:02.838Z,98723.75
2023-04-01T14:10:21.158Z,98730.81
2023-04-01T14:15:56.265Z,98739.31
2023-04-01T14:21:22.284Z,98730.75
2023-04-01T14:26:37.833Z,98740.88
2023-04-01T14:31:50.595Z,98751.34
2023-04-01T14:37:20.239Z,98753.75
2023-04-01T14:42:46.510Z,98753.50
2023-04-01T14:47:55.756Z,98757.56
2023-04-01T14:53:03.195Z,98762.31
2023-04-01T14:58:14.810Z,98763.31
2023-04-01T15:03:25.459Z,98784.88
2023-04-01T15:08:31.537Z,98784.69
2023-04-01T15:13:59.688Z,98782.44
2023-04-01T15:19:15.028Z,98791.28
2023-04-01T15:24:24.894Z,98798.44
2023-04-01T15:29:42.812Z,98800.47
2023-04-01T15:34:59.675Z,98801.59
2023-04-01T15:40:19.026Z,98808.06
2023-04-01T15:45:37.097Z,98816.19
2023-04-01T15:51:02.729Z,98825.94
2023-04-01T15:56:22.863Z,98831.50
2023-04-01T16:01:39.705Z,98838.78
2023-04-01T16:07:12.193Z,98849.50
2023-04-01T16:12:23.018Z,98846.63
2023-04-01T16:17:41.504Z,98865.94
2023-04-01T16:22:53.530Z,98872.28
2023-04-01T16:28:06.373Z,98876.94
2023-04-01T16:33:20.697Z,98893.00
2023-04-01T16:38:33.888Z,98896.84
2023-04-01T16:43:41.117Z,98897.09
2023-04-01T16:49:00.692Z,98905.13
2023-04-01T16:54:13.147Z,98880.69
2023-04-01T16:59:22.281Z,98910.41
2023-04-01T17:04:37.116Z,98916.00
2023-04-01T17:10:10.670Z,98917.09
2023-04-01T17:15:23.550Z,98923.28
2023-04-01T17:20:39.061Z,98921.47
2023-04-01T17:26:05.674Z,98926.75
2023-04-01T17:31:17.384Z,98918.81
2023-04-01T17:36:43.467Z,98921.56
2023-04-01T17:41:55.219Z,98927.97
2023-04-01T17:47:27.901Z,98926.13
2023-04-01T17:52:36.954Z,98930.41
2023-04-01T17:57:54.174Z,98928.16
2023-04-01T18:03:06.642Z,98953.16
2023-04-01T18:08:26.407Z,98961.91
2023-04-01T18:13:59.357Z,98963.63
2023-04-01T18:19:12.020Z,98960.16
2023-04-01T18:24:25.502Z,98965.28
2023-04-01T18:29:41.405Z,98960.91
2023-04-01T18:34:57.623Z,98974.19
2023-04-01T18:40:13.573Z,98973.31
2023-04-01T18:45:25.549Z,98986.47
2023-04-01T18:50:35.501Z,98977.84
2023-04-01T18:55:44.242Z,98989.81
2023-04-01T19:00:57.374Z,98987.94
2023-04-01T19:06:03.046Z,98996.75
2023-04-01T19:11:17.330Z,98986.13
2023-04-01T19:16:35.792Z,98985.25
2023-04-01T19:21:47.803Z,98984.28
2023-04-01T19:26:59.243Z,98990.44
2023-04-01T19:32:17.216Z,98992.00
2023-04-01T19:37:31.775Z,98992.91
2023-04-01T19:42:43.590Z,98994.50
2023-04-01T19:48:00.277Z,98996.22
2023-04-01T19:53:16.038Z,99004.97
2023-04-01T19:58:27.682Z,99006.66
2023-04-01T20:03:41.289Z,99018.00
2023-04-01T20:08:52.764Z,99014.44
2023-04-01T20:14:10.085Z,99031.13
2023-04-01T20:19:15.526Z,99032.84
2023-04-01T20:24:25.431Z,99032.84
2023-04-01T20:29:49.554Z,99036.31
2023-04-01T20:35:14.873Z,99032.75
2023-04-01T20:40:36.502Z,99019.47
2023-04-01T20:45:50.872Z,99024.81
2023-04-01T20:51:00.599Z,99036.19
2023-04-01T20:56:34.363Z,99045.03
2023-04-01T21:01:46.637Z,99036.19
2023-04-01T21:07:12.135Z,99043.22
2023-04-01T21:12:27.626Z,99040.59
2023-04-01T21:17:41.570Z,99049.34
2023-04-01T21:22:57.712Z,99044.13
2023-04-01T21:28:18.956Z,99053.78
2023-04-01T21:33:46.207Z,99056.44
2023-04-01T21:39:04.819Z,99052.88
2023-04-01T21:44:34.479Z,99065.97
2023-04-01T21:50:14.896Z,99062.53
2023-04-01T21:56:07.050Z,99068.63
2023-04-01T22:01:35.500Z,99062.53
2023-04-01T22:06:44.216Z,99060.78
2023-04-01T22:12:02.527Z,99057.34
2023-04-01T22:17:14.712Z,99065.28
2023-04-01T22:22:24.056Z,99072.94
2023-04-01T22:27:37.348Z,99069.47
2023-04-01T22:32:46.243Z,99075.66
2023-04-01T22:37:58.104Z,99086.75
2023-04-01T22:43:06.502Z,99079.56
2023-04-01T22:48:13.871Z,99079.50
2023-04-01T22:53:25.503Z,99078.47
2023-04-01T22:58:35.518Z,99060.94
2023-04-01T23:03:42.699Z,99080.84
2023-04-01T23:08:59.469Z,99078.09
2023-04-01T23:14:35.138Z,99085.00
2023-04-01T23:19:44.649Z,99083.81
2023-04-01T23:24:53.273Z,99078.28
2023-04-01T23:29:57.892Z,99080.00
2023-04-01T23:35:02.458Z,99091.44
2023-04-01T23:40:15.222Z,99089.66
2023-04-01T23:45:21.937Z,99087.94
2023-04-01T23:50:27.882Z,99089.78
2023-04-01T23:55:34.681Z,99096.69
